Ocean Spirit of Moray — MVXF5 — position and weather

sailwx.info

Track history (hours):
 
Tides and Currents Weather Stations Pressure Air Temp Water Temp Dewpoint Dewpoint Depression Visibility Wind Speed Wind Dir Waves Ship Positions

Ocean Spirit of Moray (United Kingdom)

Ship's website: http://www.gordonstoun.org.uk/

Last reported at 2019-Oct-01 13:58 UTC. Time now 2019-Dec-06 05:27 UTC.
Position N 57°03' W 005°49'.
Warning: this ship's position is months out of date.

Length 24 m; draft 3 m.

Type: Sailing vessel. MMSI: 232007590.

Date/timePositionNaut miles runAvg speedWind from/ knotsBaromVisibWave heightAir tempDewpointWater temp
2019-Oct-01 13:58N 57°03' W 005°49'4 8.9
2019-Oct-01 13:30N 57°07' W 005°45'5 5.1
2019-Oct-01 12:31N 57°11' W 005°41'0 6.0
2019-Oct-01 12:28N 57°12' W 005°40'4 8.7
2019-Oct-01 12:00N 57°16' W 005°38'4 7.2
2019-Oct-01 11:30N 57°17' W 005°45'3 5.1
2019-Oct-01 11:00N 57°19' W 005°45'2 4.0
2019-Oct-01 10:30N 57°21' W 005°43'1 2.8
2019-Oct-01 09:59N 57°21' W 005°40'1 2.4
2019-Oct-01 09:28N 57°21' W 005°38'0 0.0
2019-Oct-01 08:58N 57°21' W 005°38'0 0.0
2019-Oct-01 08:28N 57°21' W 005°38'0 0.0
2019-Oct-01 07:58N 57°21' W 005°38'0 0.0
2019-Oct-01 07:28N 57°21' W 005°38'0 0.0
2019-Oct-01 06:58N 57°21' W 005°38'0 0.0
2019-Oct-01 06:30N 57°21' W 005°38'0 0.0
2019-Oct-01 05:58N 57°21' W 005°38'0 0.0
2019-Oct-01 05:28N 57°21' W 005°38'0 0.0
2019-Oct-01 04:58N 57°21' W 005°38'0 0.0
2019-Oct-01 04:28N 57°21' W 005°38'0 0.0
2019-Oct-01 03:58N 57°21' W 005°38'0 0.0
2019-Oct-01 03:28N 57°21' W 005°38'0 0.0
2019-Oct-01 02:58N 57°21' W 005°38'0 0.0
2019-Oct-01 02:28N 57°21' W 005°38'0 0.0
2019-Oct-01 01:55N 57°21' W 005°38'0 0.0
2019-Oct-01 01:28N 57°21' W 005°38'0 0.0
2019-Oct-01 00:58N 57°21' W 005°38'0 0.0
2019-Oct-01 00:28N 57°21' W 005°38'0 0.0
2019-Sep-30 23:58N 57°21' W 005°38'0 0.0
2019-Sep-30 23:28N 57°21' W 005°38'0 0.0
2019-Sep-30 22:58N 57°21' W 005°38'0 0.0
2019-Sep-30 22:28N 57°21' W 005°38'0 0.0
2019-Sep-30 21:58N 57°21' W 005°38'0 0.0
2019-Sep-30 21:28N 57°21' W 005°38'0 0.0
2019-Sep-30 20:58N 57°21' W 005°38'0 0.0
2019-Sep-30 20:28N 57°21' W 005°38'0 0.0
2019-Sep-30 19:58N 57°21' W 005°38'0 0.0
2019-Sep-30 19:28N 57°21' W 005°38'0 0.0
2019-Sep-30 18:58N 57°21' W 005°38'0 0.0
2019-Sep-30 18:28N 57°21' W 005°38'0 0.0
2019-Sep-30 17:58N 57°21' W 005°38'0 0.0
2019-Sep-30 17:28N 57°21' W 005°38'0 0.0
2019-Sep-30 16:55N 57°21' W 005°38'0 0.0
2019-Sep-30 16:28N 57°21' W 005°38'0 0.0
2019-Sep-30 15:55N 57°21' W 005°38'0 0.0
2019-Sep-30 15:28N 57°21' W 005°38'0 0.0
2019-Sep-30 14:58N 57°21' W 005°38'0 0.0
2019-Sep-30 14:25N 57°21' W 005°38'0 0.0
2019-Sep-30 13:57N 57°21' W 005°38'0 0.0
2019-Sep-30 13:28N 57°21' W 005°38'0 0.0
2019-Sep-30 12:55N 57°21' W 005°38'0 0.0
2019-Sep-30 12:27N 57°21' W 005°38'0 0.0
2019-Sep-30 11:58N 57°21' W 005°38'0 0.0
2019-Sep-30 11:28N 57°21' W 005°38'0 0.0
2019-Sep-30 10:58N 57°21' W 005°38'0 0.0
2019-Sep-30 10:28N 57°21' W 005°38'0 0.0
2019-Sep-30 09:58N 57°21' W 005°38'0 0.0
2019-Sep-30 09:28N 57°21' W 005°38'0 0.0
2019-Sep-30 08:58N 57°21' W 005°38'0 0.0
2019-Sep-30 08:28N 57°21' W 005°38'0 0.0
2019-Sep-30 07:58N 57°21' W 005°38'0 0.0
2019-Sep-30 07:28N 57°21' W 005°38'0 0.0
2019-Sep-30 06:58N 57°21' W 005°38'0 0.0
2019-Sep-30 06:28N 57°21' W 005°38'0 0.0
2019-Sep-30 05:58N 57°21' W 005°38'0 0.0
2019-Sep-30 05:28N 57°21' W 005°38'0 0.0
2019-Sep-30 04:58N 57°21' W 005°38'0 0.0
2019-Sep-30 04:28N 57°21' W 005°38'0 0.0
2019-Sep-30 03:58N 57°21' W 005°38'0 0.0
2019-Sep-30 03:25N 57°21' W 005°38'0 0.0
2019-Sep-30 02:58N 57°21' W 005°38'0 0.0
2019-Sep-30 02:28N 57°21' W 005°38'0 0.0
2019-Sep-30 01:58N 57°21' W 005°38'0 0.0
2019-Sep-30 01:28N 57°21' W 005°38'0 0.0
2019-Sep-30 00:58N 57°21' W 005°38'0 0.0
2019-Sep-30 00:28N 57°21' W 005°38'0 0.0
2019-Sep-29 23:58N 57°21' W 005°38'0 0.0
2019-Sep-29 23:28N 57°21' W 005°38'0 0.0
2019-Sep-29 22:58N 57°21' W 005°38'0 0.0
2019-Sep-29 22:28N 57°21' W 005°38'0 0.0
2019-Sep-29 21:58N 57°21' W 005°38'0 0.0
2019-Sep-29 21:28N 57°21' W 005°38'0 0.0
2019-Sep-29 20:58N 57°21' W 005°38'0 0.0
2019-Sep-29 20:28N 57°21' W 005°38'0 0.0
2019-Sep-29 19:52N 57°21' W 005°38'0 0.0
2019-Sep-29 19:28N 57°21' W 005°38'0 0.0
2019-Sep-29 18:58N 57°21' W 005°38'0 0.0
2019-Sep-29 18:28N 57°21' W 005°38'0 0.0
2019-Sep-29 17:58N 57°21' W 005°38'0 0.0
2019-Sep-29 17:25N 57°21' W 005°38'0 0.0
2019-Sep-29 16:58N 57°21' W 005°38'0 0.0
2019-Sep-29 16:28N 57°21' W 005°38'0 0.0
2019-Sep-29 15:40N 57°21' W 005°38'0 0.0
2019-Sep-29 15:28N 57°21' W 005°38'0 0.0
2019-Sep-29 14:58N 57°21' W 005°38'0 0.0
2019-Sep-29 14:25N 57°21' W 005°38'0 0.0
2019-Sep-29 13:58N 57°21' W 005°38'0 0.0
2019-Sep-29 13:28N 57°21' W 005°38'0 0.0
2019-Sep-29 12:58N 57°21' W 005°38'0 0.0
2019-Sep-29 12:28N 57°21' W 005°38'0 0.0
2019-Sep-29 11:58N 57°21' W 005°38'0 0.0
2019-Sep-29 11:28N 57°21' W 005°38'0 0.0
2019-Sep-29 10:58N 57°21' W 005°38'0 0.0
2019-Sep-29 10:28N 57°21' W 005°38'0 0.0
2019-Sep-29 09:58N 57°21' W 005°38'1 3.2
2019-Sep-29 09:30N 57°21' W 005°41'4 6.9
2019-Sep-29 08:59N 57°20' W 005°47'4 7.7
2019-Sep-29 08:30N 57°20' W 005°54'4 7.4
2019-Sep-29 08:01N 57°20' W 006°01'2 4.6
2019-Sep-29 07:29N 57°21' W 006°05'0 0.0
2019-Sep-29 06:47N 57°21' W 006°05'0 0.0
2019-Sep-29 06:17N 57°21' W 006°05'0 0.0
2019-Sep-29 05:56N 57°21' W 006°05'0 0.0
2019-Sep-29 05:26N 57°21' W 006°05'0 0.0
2019-Sep-29 04:56N 57°21' W 006°05'0 0.0
2019-Sep-29 04:26N 57°21' W 006°05'0 0.0
2019-Sep-29 03:53N 57°21' W 006°05'0 0.0
2019-Sep-29 03:17N 57°21' W 006°05'0 0.0
2019-Sep-29 02:41N 57°21' W 006°05'0 0.0
2019-Sep-29 02:11N 57°21' W 006°05'0 0.0
2019-Sep-29 00:47N 57°21' W 006°05'0 0.0
2019-Sep-28 23:50N 57°21' W 006°05'0 0.0
2019-Sep-28 23:02N 57°21' W 006°05'0 0.0
2019-Sep-28 21:08N 57°21' W 006°05'0 0.0
2019-Sep-28 20:11N 57°21' W 006°05'0 0.0
2019-Sep-28 19:29N 57°21' W 006°05'0 0.0
2019-Sep-28 18:50N 57°21' W 006°05'0 0.0
2019-Sep-28 16:02N 57°21' W 006°05'0 0.2
2019-Sep-28 15:52N 57°21' W 006°05'2 4.5
2019-Sep-28 15:27N 57°23' W 006°06'8 4.5
2019-Sep-28 13:36N 57°31' W 006°03'1 7.3
2019-Sep-28 13:29N 57°32' W 006°02'6 6.9
2019-Sep-28 12:37N 57°37' W 005°58'1 6.6
2019-Sep-28 12:23N 57°39' W 005°57'6 0.3
2019-Sep-27 17:21N 57°42' W 005°48'5 7.9
2019-Sep-27 16:44N 57°37' W 005°52'2 7.4
2019-Sep-27 16:30N 57°36' W 005°53'3 5.7
2019-Sep-27 16:00N 57°33' W 005°55'1 2.1
2019-Sep-27 15:29N 57°32' W 005°55'1 2.9
2019-Sep-27 15:00N 57°31' W 005°54'1 2.8
2019-Sep-27 14:29N 57°29' W 005°54'1 2.8
2019-Sep-27 14:00N 57°28' W 005°54'2 3.4
2019-Sep-27 13:30N 57°26' W 005°55'1 2.2
2019-Sep-27 12:58N 57°25' W 005°54'1 2.2
2019-Sep-27 12:29N 57°24' W 005°53'1 3.0
2019-Sep-27 11:59N 57°23' W 005°51'1 2.5
2019-Sep-27 11:30N 57°22' W 005°51'2 3.3
2019-Sep-27 11:00N 57°21' W 005°48'3 6.0
2019-Sep-27 10:29N 57°21' W 005°43'2 4.9
2019-Sep-27 10:01N 57°21' W 005°38'0 0.0
2019-Sep-27 09:29N 57°21' W 005°38'0 0.0
2019-Sep-27 08:59N 57°21' W 005°38'0 0.0
2019-Sep-27 08:29N 57°21' W 005°38'0 0.0
2019-Sep-27 07:59N 57°21' W 005°38'0 0.0
2019-Sep-27 07:29N 57°21' W 005°38'0 0.0
2019-Sep-27 06:59N 57°21' W 005°38'0 0.0
2019-Sep-27 06:29N 57°21' W 005°38'0 0.0
2019-Sep-27 05:59N 57°21' W 005°38'0 0.0
2019-Sep-27 05:29N 57°21' W 005°38'0 0.0
2019-Sep-27 04:56N 57°21' W 005°38'0 0.0
2019-Sep-27 04:29N 57°21' W 005°38'0 0.0
2019-Sep-27 03:59N 57°21' W 005°38'0 0.0
2019-Sep-27 03:29N 57°21' W 005°38'0 0.0
2019-Sep-27 02:59N 57°21' W 005°38'0 0.0
2019-Sep-27 02:29N 57°21' W 005°38'0 0.0
2019-Sep-27 01:59N 57°21' W 005°38'0 0.0
2019-Sep-27 01:29N 57°21' W 005°38'0 0.0
2019-Sep-27 00:59N 57°21' W 005°38'0 0.0
2019-Sep-27 00:29N 57°21' W 005°38'0 0.0
2019-Sep-26 23:59N 57°21' W 005°38'0 0.0
2019-Sep-26 23:29N 57°21' W 005°38'0 0.0
2019-Sep-26 22:59N 57°21' W 005°38'0 0.0
2019-Sep-26 22:29N 57°21' W 005°38'0 0.0
2019-Sep-26 21:59N 57°21' W 005°38'0 0.0
2019-Sep-26 21:26N 57°21' W 005°38'0 0.0
2019-Sep-26 20:59N 57°21' W 005°38'0 0.0
2019-Sep-26 20:29N 57°21' W 005°38'0 0.0
2019-Sep-26 19:59N 57°21' W 005°38'0 0.0
2019-Sep-26 19:29N 57°21' W 005°38'0 0.0
2019-Sep-26 18:59N 57°21' W 005°38'0 0.0
2019-Sep-26 18:29N 57°21' W 005°38'0 0.0
2019-Sep-26 17:59N 57°21' W 005°38'0 0.0
2019-Sep-26 17:29N 57°21' W 005°38'0 0.0
2019-Sep-26 16:59N 57°21' W 005°38'0 0.0
2019-Sep-26 16:29N 57°21' W 005°38'0 0.0
2019-Sep-26 15:59N 57°21' W 005°38'0 0.0
2019-Sep-26 15:29N 57°21' W 005°38'0 0.0
2019-Sep-26 14:59N 57°21' W 005°38'0 0.0
2019-Sep-26 14:29N 57°21' W 005°38'0 0.0
2019-Sep-26 13:59N 57°21' W 005°38'0 0.0
2019-Sep-26 13:29N 57°21' W 005°38'0 0.0
2019-Sep-26 12:58N 57°21' W 005°38'0 0.0
2019-Sep-26 12:28N 57°21' W 005°38'0 0.0
2019-Sep-26 11:59N 57°21' W 005°38'0 0.0
2019-Sep-26 11:28N 57°21' W 005°38'0 0.0
2019-Sep-26 10:59N 57°21' W 005°38'0 0.0
2019-Sep-26 10:28N 57°21' W 005°38'0 0.0
2019-Sep-26 09:59N 57°21' W 005°38'0 0.0
2019-Sep-26 09:28N 57°21' W 005°38'0 0.0
2019-Sep-26 08:58N 57°21' W 005°38'0 0.0
2019-Sep-26 08:29N 57°21' W 005°38'0 0.0
2019-Sep-26 07:58N 57°21' W 005°38'0 0.0
2019-Sep-26 07:29N 57°21' W 005°38'0 0.0
2019-Sep-26 06:59N 57°21' W 005°38'0 0.0
2019-Sep-26 06:28N 57°21' W 005°38'0 0.0
2019-Sep-26 05:58N 57°21' W 005°38'0 0.0
2019-Sep-26 05:28N 57°21' W 005°38'0 0.0
2019-Sep-26 04:58N 57°21' W 005°38'0 0.0
2019-Sep-26 04:28N 57°21' W 005°38'0 0.0
2019-Sep-26 03:58N 57°21' W 005°38'0 0.0
2019-Sep-26 03:28N 57°21' W 005°38'0 0.0
2019-Sep-26 02:58N 57°21' W 005°38'0 0.0
2019-Sep-26 02:28N 57°21' W 005°38'0 0.0
2019-Sep-26 01:55N 57°21' W 005°38'0 0.0
2019-Sep-26 01:28N 57°21' W 005°38'0 0.0
2019-Sep-26 00:58N 57°21' W 005°38'0 0.0
2019-Sep-26 00:28N 57°21' W 005°38'0 0.0
2019-Sep-25 23:58N 57°21' W 005°38'0 0.0
2019-Sep-25 23:28N 57°21' W 005°38'0 0.0
2019-Sep-25 22:58N 57°21' W 005°38'0 0.0
2019-Sep-25 22:28N 57°21' W 005°38'0 0.0
2019-Sep-25 21:59N 57°21' W 005°38'0 0.0
2019-Sep-25 21:28N 57°21' W 005°38'0 0.0
2019-Sep-25 20:59N 57°21' W 005°38'0 0.0
2019-Sep-25 20:29N 57°21' W 005°38'0 0.0
2019-Sep-25 19:58N 57°21' W 005°38'0 0.0
2019-Sep-25 19:29N 57°21' W 005°38'0 0.0
2019-Sep-25 18:59N 57°21' W 005°38'0 0.0
2019-Sep-25 18:29N 57°21' W 005°38'0 0.0
2019-Sep-25 17:59N 57°21' W 005°38'0 0.0
2019-Sep-25 17:28N 57°21' W 005°38'0 0.0
2019-Sep-25 16:55N 57°21' W 005°38'0 0.0
2019-Sep-25 16:28N 57°21' W 005°38'0 0.0
2019-Sep-25 15:58N 57°21' W 005°38'0 0.0
2019-Sep-25 15:28N 57°21' W 005°38'0 0.0
2019-Sep-25 14:58N 57°21' W 005°38'0 0.0
2019-Sep-25 14:28N 57°21' W 005°38'0 0.0
2019-Sep-25 13:58N 57°21' W 005°38'0 0.0
2019-Sep-25 13:28N 57°21' W 005°38'0 0.0
2019-Sep-25 12:58N 57°21' W 005°38'0 0.0
2019-Sep-25 12:28N 57°21' W 005°38'0 0.0
2019-Sep-25 11:58N 57°21' W 005°38'0 0.0
2019-Sep-25 11:28N 57°21' W 005°38'0 0.0
2019-Sep-25 10:58N 57°21' W 005°38'0 0.0
2019-Sep-25 10:29N 57°21' W 005°38'0 0.0
2019-Sep-25 09:58N 57°21' W 005°38'0 0.0
2019-Sep-25 09:28N 57°21' W 005°38'0 0.0
2019-Sep-25 08:59N 57°21' W 005°38'0 0.0
2019-Sep-25 08:28N 57°21' W 005°38'0 0.0
2019-Sep-25 07:58N 57°21' W 005°38'0 0.0
2019-Sep-25 07:28N 57°21' W 005°38'0 0.0
2019-Sep-25 06:58N 57°21' W 005°38'0 0.0
2019-Sep-25 06:25N 57°21' W 005°38'0 0.0
2019-Sep-25 05:59N 57°21' W 005°38'0 0.0
2019-Sep-25 05:28N 57°21' W 005°38'0 0.0
2019-Sep-25 04:58N 57°21' W 005°38'0 0.0
2019-Sep-25 04:28N 57°21' W 005°38'0 0.0
2019-Sep-25 03:56N 57°21' W 005°38'0 0.0
2019-Sep-25 03:28N 57°21' W 005°38'0 0.0
2019-Sep-25 02:58N 57°21' W 005°38'0 0.0
2019-Sep-25 02:28N 57°21' W 005°38'0 0.0
2019-Sep-25 01:58N 57°21' W 005°38'0 0.0
2019-Sep-25 01:28N 57°21' W 005°38'0 0.0
2019-Sep-25 00:58N 57°21' W 005°38'0 0.0
2019-Sep-25 00:28N 57°21' W 005°38'0 0.0
2019-Sep-24 23:56N 57°21' W 005°38'0 0.0
2019-Sep-24 23:28N 57°21' W 005°38'0 0.0
2019-Sep-24 22:58N 57°21' W 005°38'0 0.0
2019-Sep-24 22:28N 57°21' W 005°38'0 0.0
2019-Sep-24 21:58N 57°21' W 005°38'0 0.0
2019-Sep-24 21:28N 57°21' W 005°38'0 0.0
2019-Sep-24 20:58N 57°21' W 005°38'0 0.0
2019-Sep-24 20:28N 57°21' W 005°38'0 0.0
2019-Sep-24 19:58N 57°21' W 005°38'0 0.0
2019-Sep-24 19:28N 57°21' W 005°38'0 0.0
2019-Sep-24 18:58N 57°21' W 005°38'0 0.0
2019-Sep-24 18:28N 57°21' W 005°38'0 0.0
2019-Sep-24 17:58N 57°21' W 005°38'0 0.0
2019-Sep-24 17:28N 57°21' W 005°38'0 0.0
2019-Sep-24 16:58N 57°21' W 005°38'0 0.0
2019-Sep-24 16:28N 57°21' W 005°38'0 0.0
2019-Sep-24 15:58N 57°21' W 005°38'0 0.0
2019-Sep-24 15:28N 57°21' W 005°38'0 0.0
2019-Sep-24 14:58N 57°21' W 005°38'0 0.0
2019-Sep-24 14:28N 57°21' W 005°38'1 1.6
2019-Sep-24 14:00N 57°21' W 005°39'3 6.3
2019-Sep-24 13:30N 57°20' W 005°45'3 6.4
2019-Sep-24 13:00N 57°19' W 005°51'3 5.9
2019-Sep-24 12:30N 57°22' W 005°53'1 2.1
2019-Sep-24 12:00N 57°23' W 005°52'2 3.1
2019-Sep-24 11:30N 57°25' W 005°52'2 4.4
2019-Sep-24 11:00N 57°27' W 005°54'3 6.0
2019-Sep-24 10:30N 57°30' W 005°54'3 5.4
2019-Sep-24 10:00N 57°32' W 005°53'2 4.9
2019-Sep-24 09:30N 57°35' W 005°53'2 3.3
2019-Sep-24 08:59N 57°36' W 005°51'4 6.2
2019-Sep-24 08:23N 57°34' W 005°45'4 0.3
2019-Sep-23 18:59N 57°32' W 005°40'3 6.4
2019-Sep-23 18:27N 57°35' W 005°44'2 3.1
2019-Sep-23 17:45N 57°36' W 005°47'1 4.7
2019-Sep-23 17:27N 57°36' W 005°49'3 7.4
2019-Sep-23 17:00N 57°34' W 005°54'2 4.4
2019-Sep-23 16:30N 57°32' W 005°55'2 3.6
2019-Sep-23 15:57N 57°34' W 005°55'2 4.4
2019-Sep-23 15:30N 57°35' W 005°53'7 4.4
2019-Sep-23 13:57N 57°42' W 005°51'42 1.7
2019-Sep-22 13:39N 57°50' W 007°09'  
Track history (hours):
 
Tides and Currents Weather Stations Pressure Air Temp Water Temp Dewpoint Dewpoint Depression Visibility Wind Speed Wind Dir Waves Ship Positions

Ocean Spirit of Moray (United Kingdom)

Ship's website: http://www.gordonstoun.org.uk/

Last reported at 2019-Oct-01 13:58 UTC. Time now 2019-Dec-06 05:27 UTC.
Position N 57°03' W 005°49'.
Warning: this ship's position is months out of date.

Length 24 m; draft 3 m.

Type: Sailing vessel. MMSI: 232007590.

Date/timePositionNaut miles runAvg speedWind from/ knotsBaromVisibWave heightAir tempDewpointWater temp
2019-Oct-01 13:58N 57°03' W 005°49'4 8.9
2019-Oct-01 13:30N 57°07' W 005°45'5 5.1
2019-Oct-01 12:31N 57°11' W 005°41'0 6.0
2019-Oct-01 12:28N 57°12' W 005°40'4 8.7
2019-Oct-01 12:00N 57°16' W 005°38'4 7.2
2019-Oct-01 11:30N 57°17' W 005°45'3 5.1
2019-Oct-01 11:00N 57°19' W 005°45'2 4.0
2019-Oct-01 10:30N 57°21' W 005°43'1 2.8
2019-Oct-01 09:59N 57°21' W 005°40'1 2.4
2019-Oct-01 09:28N 57°21' W 005°38'0 0.0
2019-Oct-01 08:58N 57°21' W 005°38'0 0.0
2019-Oct-01 08:28N 57°21' W 005°38'0 0.0
2019-Oct-01 07:58N 57°21' W 005°38'0 0.0
2019-Oct-01 07:28N 57°21' W 005°38'0 0.0
2019-Oct-01 06:58N 57°21' W 005°38'0 0.0
2019-Oct-01 06:30N 57°21' W 005°38'0 0.0
2019-Oct-01 05:58N 57°21' W 005°38'0 0.0
2019-Oct-01 05:28N 57°21' W 005°38'0 0.0
2019-Oct-01 04:58N 57°21' W 005°38'0 0.0
2019-Oct-01 04:28N 57°21' W 005°38'0 0.0
2019-Oct-01 03:58N 57°21' W 005°38'0 0.0
2019-Oct-01 03:28N 57°21' W 005°38'0 0.0
2019-Oct-01 02:58N 57°21' W 005°38'0 0.0
2019-Oct-01 02:28N 57°21' W 005°38'0 0.0
2019-Oct-01 01:55N 57°21' W 005°38'0 0.0
2019-Oct-01 01:28N 57°21' W 005°38'0 0.0
2019-Oct-01 00:58N 57°21' W 005°38'0 0.0
2019-Oct-01 00:28N 57°21' W 005°38'0 0.0
2019-Sep-30 23:58N 57°21' W 005°38'0 0.0
2019-Sep-30 23:28N 57°21' W 005°38'0 0.0
2019-Sep-30 22:58N 57°21' W 005°38'0 0.0
2019-Sep-30 22:28N 57°21' W 005°38'0 0.0
2019-Sep-30 21:58N 57°21' W 005°38'0 0.0
2019-Sep-30 21:28N 57°21' W 005°38'0 0.0
2019-Sep-30 20:58N 57°21' W 005°38'0 0.0
2019-Sep-30 20:28N 57°21' W 005°38'0 0.0
2019-Sep-30 19:58N 57°21' W 005°38'0 0.0
2019-Sep-30 19:28N 57°21' W 005°38'0 0.0
2019-Sep-30 18:58N 57°21' W 005°38'0 0.0
2019-Sep-30 18:28N 57°21' W 005°38'0 0.0
2019-Sep-30 17:58N 57°21' W 005°38'0 0.0
2019-Sep-30 17:28N 57°21' W 005°38'0 0.0
2019-Sep-30 16:55N 57°21' W 005°38'0 0.0
2019-Sep-30 16:28N 57°21' W 005°38'0 0.0
2019-Sep-30 15:55N 57°21' W 005°38'0 0.0
2019-Sep-30 15:28N 57°21' W 005°38'0 0.0
2019-Sep-30 14:58N 57°21' W 005°38'0 0.0
2019-Sep-30 14:25N 57°21' W 005°38'0 0.0
2019-Sep-30 13:57N 57°21' W 005°38'0 0.0
2019-Sep-30 13:28N 57°21' W 005°38'0 0.0
2019-Sep-30 12:55N 57°21' W 005°38'0 0.0
2019-Sep-30 12:27N 57°21' W 005°38'0 0.0
2019-Sep-30 11:58N 57°21' W 005°38'0 0.0
2019-Sep-30 11:28N 57°21' W 005°38'0 0.0
2019-Sep-30 10:58N 57°21' W 005°38'0 0.0
2019-Sep-30 10:28N 57°21' W 005°38'0 0.0
2019-Sep-30 09:58N 57°21' W 005°38'0 0.0
2019-Sep-30 09:28N 57°21' W 005°38'0 0.0
2019-Sep-30 08:58N 57°21' W 005°38'0 0.0
2019-Sep-30 08:28N 57°21' W 005°38'0 0.0
2019-Sep-30 07:58N 57°21' W 005°38'0 0.0
2019-Sep-30 07:28N 57°21' W 005°38'0 0.0
2019-Sep-30 06:58N 57°21' W 005°38'0 0.0
2019-Sep-30 06:28N 57°21' W 005°38'0 0.0
2019-Sep-30 05:58N 57°21' W 005°38'0 0.0
2019-Sep-30 05:28N 57°21' W 005°38'0 0.0
2019-Sep-30 04:58N 57°21' W 005°38'0 0.0
2019-Sep-30 04:28N 57°21' W 005°38'0 0.0
2019-Sep-30 03:58N 57°21' W 005°38'0 0.0
2019-Sep-30 03:25N 57°21' W 005°38'0 0.0
2019-Sep-30 02:58N 57°21' W 005°38'0 0.0
2019-Sep-30 02:28N 57°21' W 005°38'0 0.0
2019-Sep-30 01:58N 57°21' W 005°38'0 0.0
2019-Sep-30 01:28N 57°21' W 005°38'0 0.0
2019-Sep-30 00:58N 57°21' W 005°38'0 0.0
2019-Sep-30 00:28N 57°21' W 005°38'0 0.0
2019-Sep-29 23:58N 57°21' W 005°38'0 0.0
2019-Sep-29 23:28N 57°21' W 005°38'0 0.0
2019-Sep-29 22:58N 57°21' W 005°38'0 0.0
2019-Sep-29 22:28N 57°21' W 005°38'0 0.0
2019-Sep-29 21:58N 57°21' W 005°38'0 0.0
2019-Sep-29 21:28N 57°21' W 005°38'0 0.0
2019-Sep-29 20:58N 57°21' W 005°38'0 0.0
2019-Sep-29 20:28N 57°21' W 005°38'0 0.0
2019-Sep-29 19:52N 57°21' W 005°38'0 0.0
2019-Sep-29 19:28N 57°21' W 005°38'0 0.0
2019-Sep-29 18:58N 57°21' W 005°38'0 0.0
2019-Sep-29 18:28N 57°21' W 005°38'0 0.0
2019-Sep-29 17:58N 57°21' W 005°38'0 0.0
2019-Sep-29 17:25N 57°21' W 005°38'0 0.0
2019-Sep-29 16:58N 57°21' W 005°38'0 0.0
2019-Sep-29 16:28N 57°21' W 005°38'0 0.0
2019-Sep-29 15:40N 57°21' W 005°38'0 0.0
2019-Sep-29 15:28N 57°21' W 005°38'0 0.0
2019-Sep-29 14:58N 57°21' W 005°38'0 0.0
2019-Sep-29 14:25N 57°21' W 005°38'0 0.0
2019-Sep-29 13:58N 57°21' W 005°38'0 0.0
2019-Sep-29 13:28N 57°21' W 005°38'0 0.0
2019-Sep-29 12:58N 57°21' W 005°38'0 0.0
2019-Sep-29 12:28N 57°21' W 005°38'0 0.0
2019-Sep-29 11:58N 57°21' W 005°38'0 0.0
2019-Sep-29 11:28N 57°21' W 005°38'0 0.0
2019-Sep-29 10:58N 57°21' W 005°38'0 0.0
2019-Sep-29 10:28N 57°21' W 005°38'0 0.0
2019-Sep-29 09:58N 57°21' W 005°38'1 3.2
2019-Sep-29 09:30N 57°21' W 005°41'4 6.9
2019-Sep-29 08:59N 57°20' W 005°47'4 7.7
2019-Sep-29 08:30N 57°20' W 005°54'4 7.4
2019-Sep-29 08:01N 57°20' W 006°01'2 4.6
2019-Sep-29 07:29N 57°21' W 006°05'0 0.0
2019-Sep-29 06:47N 57°21' W 006°05'0 0.0
2019-Sep-29 06:17N 57°21' W 006°05'0 0.0
2019-Sep-29 05:56N 57°21' W 006°05'0 0.0
2019-Sep-29 05:26N 57°21' W 006°05'0 0.0
2019-Sep-29 04:56N 57°21' W 006°05'0 0.0
2019-Sep-29 04:26N 57°21' W 006°05'0 0.0
2019-Sep-29 03:53N 57°21' W 006°05'0 0.0
2019-Sep-29 03:17N 57°21' W 006°05'0 0.0
2019-Sep-29 02:41N 57°21' W 006°05'0 0.0
2019-Sep-29 02:11N 57°21' W 006°05'0 0.0
2019-Sep-29 00:47N 57°21' W 006°05'0 0.0
2019-Sep-28 23:50N 57°21' W 006°05'0 0.0
2019-Sep-28 23:02N 57°21' W 006°05'0 0.0
2019-Sep-28 21:08N 57°21' W 006°05'0 0.0
2019-Sep-28 20:11N 57°21' W 006°05'0 0.0
2019-Sep-28 19:29N 57°21' W 006°05'0 0.0
2019-Sep-28 18:50N 57°21' W 006°05'0 0.0
2019-Sep-28 16:02N 57°21' W 006°05'0 0.2
2019-Sep-28 15:52N 57°21' W 006°05'2 4.5
2019-Sep-28 15:27N 57°23' W 006°06'8 4.5
2019-Sep-28 13:36N 57°31' W 006°03'1 7.3
2019-Sep-28 13:29N 57°32' W 006°02'6 6.9
2019-Sep-28 12:37N 57°37' W 005°58'1 6.6
2019-Sep-28 12:23N 57°39' W 005°57'6 0.3
2019-Sep-27 17:21N 57°42' W 005°48'5 7.9
2019-Sep-27 16:44N 57°37' W 005°52'2 7.4
2019-Sep-27 16:30N 57°36' W 005°53'3 5.7
2019-Sep-27 16:00N 57°33' W 005°55'1 2.1
2019-Sep-27 15:29N 57°32' W 005°55'1 2.9
2019-Sep-27 15:00N 57°31' W 005°54'1 2.8
2019-Sep-27 14:29N 57°29' W 005°54'1 2.8
2019-Sep-27 14:00N 57°28' W 005°54'2 3.4
2019-Sep-27 13:30N 57°26' W 005°55'1 2.2
2019-Sep-27 12:58N 57°25' W 005°54'1 2.2
2019-Sep-27 12:29N 57°24' W 005°53'1 3.0
2019-Sep-27 11:59N 57°23' W 005°51'1 2.5
2019-Sep-27 11:30N 57°22' W 005°51'2 3.3
2019-Sep-27 11:00N 57°21' W 005°48'3 6.0
2019-Sep-27 10:29N 57°21' W 005°43'2 4.9
2019-Sep-27 10:01N 57°21' W 005°38'0 0.0
2019-Sep-27 09:29N 57°21' W 005°38'0 0.0
2019-Sep-27 08:59N 57°21' W 005°38'0 0.0
2019-Sep-27 08:29N 57°21' W 005°38'0 0.0
2019-Sep-27 07:59N 57°21' W 005°38'0 0.0
2019-Sep-27 07:29N 57°21' W 005°38'0 0.0
2019-Sep-27 06:59N 57°21' W 005°38'0 0.0
2019-Sep-27 06:29N 57°21' W 005°38'0 0.0
2019-Sep-27 05:59N 57°21' W 005°38'0 0.0
2019-Sep-27 05:29N 57°21' W 005°38'0 0.0
2019-Sep-27 04:56N 57°21' W 005°38'0 0.0
2019-Sep-27 04:29N 57°21' W 005°38'0 0.0
2019-Sep-27 03:59N 57°21' W 005°38'0 0.0
2019-Sep-27 03:29N 57°21' W 005°38'0 0.0
2019-Sep-27 02:59N 57°21' W 005°38'0 0.0
2019-Sep-27 02:29N 57°21' W 005°38'0 0.0
2019-Sep-27 01:59N 57°21' W 005°38'0 0.0
2019-Sep-27 01:29N 57°21' W 005°38'0 0.0
2019-Sep-27 00:59N 57°21' W 005°38'0 0.0
2019-Sep-27 00:29N 57°21' W 005°38'0 0.0
2019-Sep-26 23:59N 57°21' W 005°38'0 0.0
2019-Sep-26 23:29N 57°21' W 005°38'0 0.0
2019-Sep-26 22:59N 57°21' W 005°38'0 0.0
2019-Sep-26 22:29N 57°21' W 005°38'0 0.0
2019-Sep-26 21:59N 57°21' W 005°38'0 0.0
2019-Sep-26 21:26N 57°21' W 005°38'0 0.0
2019-Sep-26 20:59N 57°21' W 005°38'0 0.0
2019-Sep-26 20:29N 57°21' W 005°38'0 0.0
2019-Sep-26 19:59N 57°21' W 005°38'0 0.0
2019-Sep-26 19:29N 57°21' W 005°38'0 0.0
2019-Sep-26 18:59N 57°21' W 005°38'0 0.0
2019-Sep-26 18:29N 57°21' W 005°38'0 0.0
2019-Sep-26 17:59N 57°21' W 005°38'0 0.0
2019-Sep-26 17:29N 57°21' W 005°38'0 0.0
2019-Sep-26 16:59N 57°21' W 005°38'0 0.0
2019-Sep-26 16:29N 57°21' W 005°38'0 0.0
2019-Sep-26 15:59N 57°21' W 005°38'0 0.0
2019-Sep-26 15:29N 57°21' W 005°38'0 0.0
2019-Sep-26 14:59N 57°21' W 005°38'0 0.0
2019-Sep-26 14:29N 57°21' W 005°38'0 0.0
2019-Sep-26 13:59N 57°21' W 005°38'0 0.0
2019-Sep-26 13:29N 57°21' W 005°38'0 0.0
2019-Sep-26 12:58N 57°21' W 005°38'0 0.0
2019-Sep-26 12:28N 57°21' W 005°38'0 0.0
2019-Sep-26 11:59N 57°21' W 005°38'0 0.0
2019-Sep-26 11:28N 57°21' W 005°38'0 0.0
2019-Sep-26 10:59N 57°21' W 005°38'0 0.0
2019-Sep-26 10:28N 57°21' W 005°38'0 0.0
2019-Sep-26 09:59N 57°21' W 005°38'0 0.0
2019-Sep-26 09:28N 57°21' W 005°38'0 0.0
2019-Sep-26 08:58N 57°21' W 005°38'0 0.0
2019-Sep-26 08:29N 57°21' W 005°38'0 0.0
2019-Sep-26 07:58N 57°21' W 005°38'0 0.0
2019-Sep-26 07:29N 57°21' W 005°38'0 0.0
2019-Sep-26 06:59N 57°21' W 005°38'0 0.0
2019-Sep-26 06:28N 57°21' W 005°38'0 0.0
2019-Sep-26 05:58N 57°21' W 005°38'0 0.0
2019-Sep-26 05:28N 57°21' W 005°38'0 0.0
2019-Sep-26 04:58N 57°21' W 005°38'0 0.0
2019-Sep-26 04:28N 57°21' W 005°38'0 0.0
2019-Sep-26 03:58N 57°21' W 005°38'0 0.0
2019-Sep-26 03:28N 57°21' W 005°38'0 0.0
2019-Sep-26 02:58N 57°21' W 005°38'0 0.0
2019-Sep-26 02:28N 57°21' W 005°38'0 0.0
2019-Sep-26 01:55N 57°21' W 005°38'0 0.0
2019-Sep-26 01:28N 57°21' W 005°38'0 0.0
2019-Sep-26 00:58N 57°21' W 005°38'0 0.0
2019-Sep-26 00:28N 57°21' W 005°38'0 0.0
2019-Sep-25 23:58N 57°21' W 005°38'0 0.0
2019-Sep-25 23:28N 57°21' W 005°38'0 0.0
2019-Sep-25 22:58N 57°21' W 005°38'0 0.0
2019-Sep-25 22:28N 57°21' W 005°38'0 0.0
2019-Sep-25 21:59N 57°21' W 005°38'0 0.0
2019-Sep-25 21:28N 57°21' W 005°38'0 0.0
2019-Sep-25 20:59N 57°21' W 005°38'0 0.0
2019-Sep-25 20:29N 57°21' W 005°38'0 0.0
2019-Sep-25 19:58N 57°21' W 005°38'0 0.0
2019-Sep-25 19:29N 57°21' W 005°38'0 0.0
2019-Sep-25 18:59N 57°21' W 005°38'0 0.0
2019-Sep-25 18:29N 57°21' W 005°38'0 0.0
2019-Sep-25 17:59N 57°21' W 005°38'0 0.0
2019-Sep-25 17:28N 57°21' W 005°38'0 0.0
2019-Sep-25 16:55N 57°21' W 005°38'0 0.0
2019-Sep-25 16:28N 57°21' W 005°38'0 0.0
2019-Sep-25 15:58N 57°21' W 005°38'0 0.0
2019-Sep-25 15:28N 57°21' W 005°38'0 0.0
2019-Sep-25 14:58N 57°21' W 005°38'0 0.0
2019-Sep-25 14:28N 57°21' W 005°38'0 0.0
2019-Sep-25 13:58N 57°21' W 005°38'0 0.0
2019-Sep-25 13:28N 57°21' W 005°38'0 0.0
2019-Sep-25 12:58N 57°21' W 005°38'0 0.0
2019-Sep-25 12:28N 57°21' W 005°38'0 0.0
2019-Sep-25 11:58N 57°21' W 005°38'0 0.0
2019-Sep-25 11:28N 57°21' W 005°38'0 0.0
2019-Sep-25 10:58N 57°21' W 005°38'0 0.0
2019-Sep-25 10:29N 57°21' W 005°38'0 0.0
2019-Sep-25 09:58N 57°21' W 005°38'0 0.0
2019-Sep-25 09:28N 57°21' W 005°38'0 0.0
2019-Sep-25 08:59N 57°21' W 005°38'0 0.0
2019-Sep-25 08:28N 57°21' W 005°38'0 0.0
2019-Sep-25 07:58N 57°21' W 005°38'0 0.0
2019-Sep-25 07:28N 57°21' W 005°38'0 0.0
2019-Sep-25 06:58N 57°21' W 005°38'0 0.0
2019-Sep-25 06:25N 57°21' W 005°38'0 0.0
2019-Sep-25 05:59N 57°21' W 005°38'0 0.0
2019-Sep-25 05:28N 57°21' W 005°38'0 0.0
2019-Sep-25 04:58N 57°21' W 005°38'0 0.0
2019-Sep-25 04:28N 57°21' W 005°38'0 0.0
2019-Sep-25 03:56N 57°21' W 005°38'0 0.0
2019-Sep-25 03:28N 57°21' W 005°38'0 0.0
2019-Sep-25 02:58N 57°21' W 005°38'0 0.0
2019-Sep-25 02:28N 57°21' W 005°38'0 0.0
2019-Sep-25 01:58N 57°21' W 005°38'0 0.0
2019-Sep-25 01:28N 57°21' W 005°38'0 0.0
2019-Sep-25 00:58N 57°21' W 005°38'0 0.0
2019-Sep-25 00:28N 57°21' W 005°38'0 0.0
2019-Sep-24 23:56N 57°21' W 005°38'0 0.0
2019-Sep-24 23:28N 57°21' W 005°38'0 0.0
2019-Sep-24 22:58N 57°21' W 005°38'0 0.0
2019-Sep-24 22:28N 57°21' W 005°38'0 0.0
2019-Sep-24 21:58N 57°21' W 005°38'0 0.0
2019-Sep-24 21:28N 57°21' W 005°38'0 0.0
2019-Sep-24 20:58N 57°21' W 005°38'0 0.0
2019-Sep-24 20:28N 57°21' W 005°38'0 0.0
2019-Sep-24 19:58N 57°21' W 005°38'0 0.0
2019-Sep-24 19:28N 57°21' W 005°38'0 0.0
2019-Sep-24 18:58N 57°21' W 005°38'0 0.0
2019-Sep-24 18:28N 57°21' W 005°38'0 0.0
2019-Sep-24 17:58N 57°21' W 005°38'0 0.0
2019-Sep-24 17:28N 57°21' W 005°38'0 0.0
2019-Sep-24 16:58N 57°21' W 005°38'0 0.0
2019-Sep-24 16:28N 57°21' W 005°38'0 0.0
2019-Sep-24 15:58N 57°21' W 005°38'0 0.0
2019-Sep-24 15:28N 57°21' W 005°38'0 0.0
2019-Sep-24 14:58N 57°21' W 005°38'0 0.0
2019-Sep-24 14:28N 57°21' W 005°38'1 1.6
2019-Sep-24 14:00N 57°21' W 005°39'3 6.3
2019-Sep-24 13:30N 57°20' W 005°45'3 6.4
2019-Sep-24 13:00N 57°19' W 005°51'3 5.9
2019-Sep-24 12:30N 57°22' W 005°53'1 2.1
2019-Sep-24 12:00N 57°23' W 005°52'2 3.1
2019-Sep-24 11:30N 57°25' W 005°52'2 4.4
2019-Sep-24 11:00N 57°27' W 005°54'3 6.0
2019-Sep-24 10:30N 57°30' W 005°54'3 5.4
2019-Sep-24 10:00N 57°32' W 005°53'2 4.9
2019-Sep-24 09:30N 57°35' W 005°53'2 3.3
2019-Sep-24 08:59N 57°36' W 005°51'4 6.2
2019-Sep-24 08:23N 57°34' W 005°45'4 0.3
2019-Sep-23 18:59N 57°32' W 005°40'3 6.4
2019-Sep-23 18:27N 57°35' W 005°44'2 3.1
2019-Sep-23 17:45N 57°36' W 005°47'1 4.7
2019-Sep-23 17:27N 57°36' W 005°49'3 7.4
2019-Sep-23 17:00N 57°34' W 005°54'2 4.4
2019-Sep-23 16:30N 57°32' W 005°55'2 3.6
2019-Sep-23 15:57N 57°34' W 005°55'2 4.4
2019-Sep-23 15:30N 57°35' W 005°53'7 4.4
2019-Sep-23 13:57N 57°42' W 005°51'42 1.7
2019-Sep-22 13:39N 57°50' W 007°09'  

Dump ship's entire track history